sensor_id;sensor_type;location;lat;lon;timestamp;pressure;altitude;pressure_sealevel;temperature;humidity
78932;BME280;68331;53.362;55.932;2024-02-04T00:01:51;98590.41;;;-4.56;76.32
78932;BME280;68331;53.362;55.932;2024-02-04T00:04:17;98584.41;;;-4.55;76.15
78932;BME280;68331;53.362;55.932;2024-02-04T00:06:42;98587.00;;;-4.55;75.42
78932;BME280;68331;53.362;55.932;2024-02-04T00:09:08;98586.13;;;-4.54;76.07
78932;BME280;68331;53.362;55.932;2024-02-04T00:11:34;98572.31;;;-4.65;75.70
78932;BME280;68331;53.362;55.932;2024-02-04T00:14:00;98574.97;;;-4.54;75.68
78932;BME280;68331;53.362;55.932;2024-02-04T00:16:27;98586.19;;;-4.49;75.16
78932;BME280;68331;53.362;55.932;2024-02-04T00:18:54;98593.91;;;-4.49;75.05
78932;BME280;68331;53.362;55.932;2024-02-04T00:21:20;98588.69;;;-4.57;75.26
78932;BME280;68331;53.362;55.932;2024-02-04T00:23:46;98581.75;;;-4.64;75.45
78932;BME280;68331;53.362;55.932;2024-02-04T00:26:11;98580.84;;;-4.71;75.85
78932;BME280;68331;53.362;55.932;2024-02-04T00:28:38;98572.22;;;-4.76;75.55
78932;BME280;68331;53.362;55.932;2024-02-04T00:31:05;98584.31;;;-4.67;75.76
78932;BME280;68331;53.362;55.932;2024-02-04T00:33:33;98579.22;;;-4.61;75.32
78932;BME280;68331;53.362;55.932;2024-02-04T00:35:58;98575.75;;;-4.63;74.80
78932;BME280;68331;53.362;55.932;2024-02-04T00:38:24;98564.59;;;-4.68;75.00
78932;BME280;68331;53.362;55.932;2024-02-04T00:40:52;98585.19;;;-4.63;74.78
78932;BME280;68331;53.362;55.932;2024-02-04T00:43:20;98567.91;;;-4.81;73.90
78932;BME280;68331;53.362;55.932;2024-02-04T00:45:47;98585.13;;;-4.71;74.08
78932;BME280;68331;53.362;55.932;2024-02-04T00:48:13;98585.16;;;-4.67;74.96
78932;BME280;68331;53.362;55.932;2024-02-04T00:50:39;98597.25;;;-4.58;74.61
78932;BME280;68331;53.362;55.932;2024-02-04T00:53:05;98592.13;;;-4.55;73.95
78932;BME280;68331;53.362;55.932;2024-02-04T00:55:32;98593.03;;;-4.48;73.73
78932;BME280;68331;53.362;55.932;2024-02-04T00:57:58;98574.09;;;-4.58;73.54
78932;BME280;68331;53.362;55.932;2024-02-04T01:00:26;98593.91;;;-4.48;73.14
78932;BME280;68331;53.362;55.932;2024-02-04T01:02:52;98583.41;;;-4.69;73.59
78932;BME280;68331;53.362;55.932;2024-02-04T01:05:18;98592.09;;;-4.61;73.48
78932;BME280;68331;53.362;55.932;2024-02-04T01:07:46;98595.59;;;-4.53;73.33
78932;BME280;68331;53.362;55.932;2024-02-04T01:10:12;98595.56;;;-4.54;73.18
78932;BME280;68331;53.362;55.932;2024-02-04T01:12:39;98592.16;;;-4.50;73.41
78932;BME280;68331;53.362;55.932;2024-02-04T01:15:05;98602.53;;;-4.41;73.14
78932;BME280;68331;53.362;55.932;2024-02-04T01:17:32;98602.56;;;-4.39;72.84
78932;BME280;68331;53.362;55.932;2024-02-04T01:19:59;98607.66;;;-4.46;72.74
78932;BME280;68331;53.362;55.932;2024-02-04T01:22:26;98609.31;;;-4.51;72.57
78932;BME280;68331;53.362;55.932;2024-02-04T01:24:54;98615.34;;;-4.49;73.42
78932;BME280;68331;53.362;55.932;2024-02-04T01:27:20;98620.47;;;-4.52;73.01
78932;BME280;68331;53.362;55.932;2024-02-04T01:29:46;98583.44;;;-4.71;73.15
78932;BME280;68331;53.362;55.932;2024-02-04T01:32:13;98623.88;;;-4.54;73.08
78932;BME280;68331;53.362;55.932;2024-02-04T01:34:39;98618.75;;;-4.53;73.26
78932;BME280;68331;53.362;55.932;2024-02-04T01:37:05;98623.00;;;-4.59;72.54
78932;BME280;68331;53.362;55.932;2024-02-04T01:39:31;98624.69;;;-4.61;74.01
78932;BME280;68331;53.362;55.932;2024-02-04T01:41:57;98621.22;;;-4.65;73.05
78932;BME280;68331;53.362;55.932;2024-02-04T01:44:24;98613.44;;;-4.71;72.88
78932;BME280;68331;53.362;55.932;2024-02-04T01:46:50;98614.28;;;-4.69;73.60
78932;BME280;68331;53.362;55.932;2024-02-04T01:49:16;98617.72;;;-4.70;72.96
78932;BME280;68331;53.362;55.932;2024-02-04T01:51:42;98590.22;;;-4.76;72.62
78932;BME280;68331;53.362;55.932;2024-02-04T01:54:08;98585.03;;;-4.82;73.10
78932;BME280;68331;53.362;55.932;2024-02-04T01:56:36;98604.84;;;-4.75;72.76
78932;BME280;68331;53.362;55.932;2024-02-04T01:59:02;98609.13;;;-4.75;72.28
78932;BME280;68331;53.362;55.932;2024-02-04T02:01:29;98616.81;;;-4.78;72.99
78932;BME280;68331;53.362;55.932;2024-02-04T02:03:55;98611.75;;;-4.68;72.57
78932;BME280;68331;53.362;55.932;2024-02-04T02:06:21;98612.59;;;-4.70;71.94
78932;BME280;68331;53.362;55.932;2024-02-04T02:08:48;98605.59;;;-4.82;71.84
78932;BME280;68331;53.362;55.932;2024-02-04T02:11:27;98602.19;;;-4.84;72.32
78932;BME280;68331;53.362;55.932;2024-02-04T02:13:57;98596.16;;;-4.86;72.30
78932;BME280;68331;53.362;55.932;2024-02-04T02:16:27;98590.94;;;-4.94;72.52
78932;BME280;68331;53.362;55.932;2024-02-04T02:19:03;98590.84;;;-5.03;72.26
78932;BME280;68331;53.362;55.932;2024-02-04T02:21:52;98590.72;;;-5.15;72.20
78932;BME280;68331;53.362;55.932;2024-02-04T02:26:49;98595.84;;;-5.15;72.64
78932;BME280;68331;53.362;55.932;2024-02-04T02:29:16;98589.81;;;-5.17;72.77
78932;BME280;68331;53.362;55.932;2024-02-04T02:31:42;98602.78;;;-5.08;72.88
78932;BME280;68331;53.362;55.932;2024-02-04T02:34:10;98602.81;;;-5.05;72.69
78932;BME280;68331;53.362;55.932;2024-02-04T02:36:44;98612.25;;;-5.07;71.99
78932;BME280;68331;53.362;55.932;2024-02-04T02:39:26;98618.28;;;-5.03;72.07
78932;BME280;68331;53.362;55.932;2024-02-04T02:41:55;98621.75;;;-5.00;71.91
78932;BME280;68331;53.362;55.932;2024-02-04T02:44:25;98630.34;;;-4.95;71.62
78932;BME280;68331;53.362;55.932;2024-02-04T02:46:54;98633.78;;;-4.96;71.89
78932;BME280;68331;53.362;55.932;2024-02-04T02:49:21;98598.44;;;-5.17;71.49
78932;BME280;68331;53.362;55.932;2024-02-04T02:51:47;98623.31;;;-5.11;71.66
78932;BME280;68331;53.362;55.932;2024-02-04T02:54:13;98619.75;;;-5.25;71.82
78932;BME280;68331;53.362;55.932;2024-02-04T02:56:39;98637.75;;;-5.25;71.92
78932;BME280;68331;53.362;55.932;2024-02-04T02:59:05;98637.66;;;-5.30;72.02
78932;BME280;68331;53.362;55.932;2024-02-04T03:01:31;98640.28;;;-5.28;72.24
78932;BME280;68331;53.362;55.932;2024-02-04T03:03:57;98633.38;;;-5.31;71.75
78932;BME280;68331;53.362;55.932;2024-02-04T03:06:23;98630.81;;;-5.32;71.93
78932;BME280;68331;53.362;55.932;2024-02-04T03:08:49;98642.78;;;-5.34;72.01
78932;BME280;68331;53.362;55.932;2024-02-04T03:11:16;98652.13;;;-5.40;72.17
78932;BME280;68331;53.362;55.932;2024-02-04T03:13:42;98646.16;;;-5.39;72.72
78932;BME280;68331;53.362;55.932;2024-02-04T03:16:11;98644.56;;;-5.27;72.69
78932;BME280;68331;53.362;55.932;2024-02-04T03:18:41;98653.97;;;-5.28;72.26
78932;BME280;68331;53.362;55.932;2024-02-04T03:21:16;98653.16;;;-5.24;72.18
78932;BME280;68331;53.362;55.932;2024-02-04T03:23:42;98656.66;;;-5.17;72.21
78932;BME280;68331;53.362;55.932;2024-02-04T03:26:10;98661.81;;;-5.17;71.62
78932;BME280;68331;53.362;55.932;2024-02-04T03:28:36;98674.59;;;-5.25;71.65
78932;BME280;68331;53.362;55.932;2024-02-04T03:31:03;98674.59;;;-5.25;71.87
78932;BME280;68331;53.362;55.932;2024-02-04T03:33:29;98681.31;;;-5.34;71.68
78932;BME280;68331;53.362;55.932;2024-02-04T03:35:56;98680.44;;;-5.37;71.89
78932;BME280;68331;53.362;55.932;2024-02-04T03:38:21;98676.09;;;-5.41;71.81
78932;BME280;68331;53.362;55.932;2024-02-04T03:40:48;98672.69;;;-5.41;71.85
78932;BME280;68331;53.362;55.932;2024-02-04T03:43:15;98674.34;;;-5.43;71.92
78932;BME280;68331;53.362;55.932;2024-02-04T03:45:41;98672.72;;;-5.38;71.73
78932;BME280;68331;53.362;55.932;2024-02-04T03:48:08;98666.78;;;-5.32;71.55
78932;BME280;68331;53.362;55.932;2024-02-04T03:50:35;98671.03;;;-5.34;70.85
78932;BME280;68331;53.362;55.932;2024-02-04T03:53:01;98669.28;;;-5.39;71.25
78932;BME280;68331;53.362;55.932;2024-02-04T03:55:27;98672.72;;;-5.38;71.02
78932;BME280;68331;53.362;55.932;2024-02-04T03:57:55;98678.75;;;-5.34;70.67
78932;BME280;68331;53.362;55.932;2024-02-04T04:00:22;98677.00;;;-5.37;70.82
78932;BME280;68331;53.362;55.932;2024-02-04T04:02:48;98672.72;;;-5.37;70.82
78932;BME280;68331;53.362;55.932;2024-02-04T04:05:14;98677.03;;;-5.34;70.83
78932;BME280;68331;53.362;55.932;2024-02-04T04:07:40;98671.81;;;-5.40;70.62
78932;BME280;68331;53.362;55.932;2024-02-04T04:10:07;98677.78;;;-5.43;70.59
78932;BME280;68331;53.362;55.932;2024-02-04T04:12:33;98679.56;;;-5.39;70.96
78932;BME280;68331;53.362;55.932;2024-02-04T04:14:59;98680.38;;;-5.40;70.59
78932;BME280;68331;53.362;55.932;2024-02-04T04:17:25;98677.81;;;-5.40;70.48
78932;BME280;68331;53.362;55.932;2024-02-04T04:19:51;98674.47;;;-5.35;70.85
78932;BME280;68331;53.362;55.932;2024-02-04T04:22:17;98673.63;;;-5.33;70.41
78932;BME280;68331;53.362;55.932;2024-02-04T04:24:43;98679.59;;;-5.35;70.58
78932;BME280;68331;53.362;55.932;2024-02-04T04:27:09;98680.50;;;-5.32;70.88
78932;BME280;68331;53.362;55.932;2024-02-04T04:29:35;98683.19;;;-5.21;70.62
78932;BME280;68331;53.362;55.932;2024-02-04T04:32:01;98674.63;;;-5.23;70.38
78932;BME280;68331;53.362;55.932;2024-02-04T04:34:27;98688.25;;;-5.29;70.76
78932;BME280;68331;53.362;55.932;2024-02-04T04:36:53;98673.63;;;-5.33;70.41
78932;BME280;68331;53.362;55.932;2024-02-04T04:39:19;98685.81;;;-5.18;70.75
78932;BME280;68331;53.362;55.932;2024-02-04T04:41:45;98679.72;;;-5.25;70.06
78932;BME280;68331;53.362;55.932;2024-02-04T04:44:11;98678.94;;;-5.18;69.70
78932;BME280;68331;53.362;55.932;2024-02-04T04:46:38;98678.19;;;-5.10;70.29
78932;BME280;68331;53.362;55.932;2024-02-04T04:49:05;98680.03;;;-4.99;69.68
78932;BME280;68331;53.362;55.932;2024-02-04T04:51:31;98685.34;;;-4.82;69.46
78932;BME280;68331;53.362;55.932;2024-02-04T04:53:58;98684.56;;;-4.76;68.69
78932;BME280;68331;53.362;55.932;2024-02-04T04:56:24;98687.13;;;-4.78;68.60
78932;BME280;68331;53.362;55.932;2024-02-04T04:58:50;98688.06;;;-4.71;68.42
78932;BME280;68331;53.362;55.932;2024-02-04T05:01:16;98674.28;;;-4.76;68.70
78932;BME280;68331;53.362;55.932;2024-02-04T05:03:42;98684.56;;;-4.78;68.67
78932;BME280;68331;53.362;55.932;2024-02-04T05:06:08;98674.28;;;-4.76;68.81
78932;BME280;68331;53.362;55.932;2024-02-04T05:08:34;98682.09;;;-4.67;68.63
78932;BME280;68331;53.362;55.932;2024-02-04T05:11:00;98682.97;;;-4.65;69.10
78932;BME280;68331;53.362;55.932;2024-02-04T05:13:26;98679.53;;;-4.65;68.55
78932;BME280;68331;53.362;55.932;2024-02-04T05:15:52;98675.22;;;-4.68;69.24
78932;BME280;68331;53.362;55.932;2024-02-04T05:18:18;98682.19;;;-4.56;68.96
78932;BME280;68331;53.362;55.932;2024-02-04T05:20:43;98685.63;;;-4.56;68.93
78932;BME280;68331;53.362;55.932;2024-02-04T05:23:09;98684.81;;;-4.50;69.32
78932;BME280;68331;53.362;55.932;2024-02-04T05:25:35;98685.69;;;-4.50;68.92
78932;BME280;68331;53.362;55.932;2024-02-04T05:28:01;98685.63;;;-4.56;68.89
78932;BME280;68331;53.362;55.932;2024-02-04T05:30:27;98694.13;;;-4.63;69.12
78932;BME280;68331;53.362;55.932;2024-02-04T05:32:53;98692.53;;;-4.52;70.06
78932;BME280;68331;53.362;55.932;2024-02-04T05:35:20;98699.50;;;-4.43;69.00
78932;BME280;68331;53.362;55.932;2024-02-04T05:37:46;98695.19;;;-4.42;69.20
78932;BME280;68331;53.362;55.932;2024-02-04T05:40:12;98667.63;;;-4.56;69.25
78932;BME280;68331;53.362;55.932;2024-02-04T05:42:39;98696.16;;;-4.30;69.26
78932;BME280;68331;53.362;55.932;2024-02-04T05:45:05;98706.59;;;-4.13;69.28
78932;BME280;68331;53.362;55.932;2024-02-04T05:47:32;98703.28;;;-4.00;68.77
78932;BME280;68331;53.362;55.932;2024-02-04T05:49:58;98708.34;;;-4.09;68.52
78932;BME280;68331;53.362;55.932;2024-02-04T05:52:24;98699.78;;;-4.11;68.35
78932;BME280;68331;53.362;55.932;2024-02-04T05:54:50;98695.50;;;-4.07;68.36
78932;BME280;68331;53.362;55.932;2024-02-04T05:57:16;98698.06;;;-4.10;68.36
78932;BME280;68331;53.362;55.932;2024-02-04T05:59:42;98694.63;;;-4.11;69.01
78932;BME280;68331;53.362;55.932;2024-02-04T06:02:07;98705.84;;;-4.01;69.01
78932;BME280;68331;53.362;55.932;2024-02-04T06:04:33;98705.94;;;-3.92;68.44
78932;BME280;68331;53.362;55.932;2024-02-04T06:07:00;98702.47;;;-3.95;68.43
78932;BME280;68331;53.362;55.932;2024-02-04T06:09:26;98703.31;;;-3.95;68.35
78932;BME280;68331;53.362;55.932;2024-02-04T06:11:52;98698.97;;;-4.01;68.28
78932;BME280;68331;53.362;55.932;2024-02-04T06:14:18;98699.06;;;-3.88;68.23
78932;BME280;68331;53.362;55.932;2024-02-04T06:16:44;98694.03;;;-3.71;68.05
78932;BME280;68331;53.362;55.932;2024-02-04T06:19:09;98698.38;;;-3.64;67.22
78932;BME280;68331;53.362;55.932;2024-02-04T06:21:38;98694.06;;;-3.65;67.46
78932;BME280;68331;53.362;55.932;2024-02-04T06:24:05;98705.31;;;-3.56;66.89
78932;BME280;68331;53.362;55.932;2024-02-04T06:26:31;98707.06;;;-3.50;67.42
78932;BME280;68331;53.362;55.932;2024-02-04T06:28:57;98708.69;;;-3.63;67.63
78932;BME280;68331;53.362;55.932;2024-02-04T06:31:23;98708.59;;;-3.80;67.64
78932;BME280;68331;53.362;55.932;2024-02-04T06:33:48;98707.66;;;-3.88;68.99
78932;BME280;68331;53.362;55.932;2024-02-04T06:36:15;98707.63;;;-3.95;68.59
78932;BME280;68331;53.362;55.932;2024-02-04T06:38:41;98717.91;;;-3.94;68.55
78932;BME280;68331;53.362;55.932;2024-02-04T06:41:07;98718.84;;;-3.84;68.54
78932;BME280;68331;53.362;55.932;2024-02-04T06:43:33;98701.66;;;-3.88;68.44
78932;BME280;68331;53.362;55.932;2024-02-04T06:45:59;98721.53;;;-3.67;68.56
78932;BME280;68331;53.362;55.932;2024-02-04T06:48:25;98716.44;;;-3.58;68.23
78932;BME280;68331;53.362;55.932;2024-02-04T06:50:51;98712.22;;;-3.50;68.01
78932;BME280;68331;53.362;55.932;2024-02-04T06:53:17;98716.50;;;-3.49;68.18
78932;BME280;68331;53.362;55.932;2024-02-04T06:55:43;98715.69;;;-3.42;67.81
78932;BME280;68331;53.362;55.932;2024-02-04T06:58:08;98714.88;;;-3.38;68.08
78932;BME280;68331;53.362;55.932;2024-02-04T07:00:34;98709.69;;;-3.39;67.46
78932;BME280;68331;53.362;55.932;2024-02-04T07:03:00;98709.75;;;-3.30;68.60
78932;BME280;68331;53.362;55.932;2024-02-04T07:05:26;98710.69;;;-3.19;67.47
78932;BME280;68331;53.362;55.932;2024-02-04T07:07:52;98709.81;;;-3.13;66.72
78932;BME280;68331;53.362;55.932;2024-02-04T07:10:18;98721.03;;;-3.08;66.90
78932;BME280;68331;53.362;55.932;2024-02-04T07:12:45;98715.06;;;-2.99;66.37
78932;BME280;68331;53.362;55.932;2024-02-04T07:15:11;98701.25;;;-3.08;66.68
78932;BME280;68331;53.362;55.932;2024-02-04T07:17:37;98708.09;;;-3.13;67.47
78932;BME280;68331;53.362;55.932;2024-02-04T07:20:03;98699.47;;;-3.19;66.46
78932;BME280;68331;53.362;55.932;2024-02-04T07:22:31;98697.81;;;-3.05;66.68
78932;BME280;68331;53.362;55.932;2024-02-04T07:24:57;98701.34;;;-2.80;66.73
78932;BME280;68331;53.362;55.932;2024-02-04T07:27:24;98689.34;;;-2.73;65.66
78932;BME280;68331;53.362;55.932;2024-02-04T07:29:49;98687.59;;;-2.74;65.67
78932;BME280;68331;53.362;55.932;2024-02-04T07:32:15;98693.59;;;-2.78;66.02
78932;BME280;68331;53.362;55.932;2024-02-04T07:34:41;98698.81;;;-2.71;66.44
78932;BME280;68331;53.362;55.932;2024-02-04T07:37:08;98697.94;;;-2.62;66.19
78932;BME280;68331;53.362;55.932;2024-02-04T07:39:34;98694.53;;;-2.53;66.25
78932;BME280;68331;53.362;55.932;2024-02-04T07:42:00;98683.34;;;-2.48;66.83
78932;BME280;68331;53.362;55.932;2024-02-04T07:44:29;98690.25;;;-2.38;66.15
78932;BME280;68331;53.362;55.932;2024-02-04T07:46:55;98698.00;;;-2.33;66.05
78932;BME280;68331;53.362;55.932;2024-02-04T07:49:21;98684.22;;;-2.38;66.00
78932;BME280;68331;53.362;55.932;2024-02-04T07:51:47;98677.34;;;-2.25;65.63
78932;BME280;68331;53.362;55.932;2024-02-04T07:54:13;98674.75;;;-1.89;65.18
78932;BME280;68331;53.362;55.932;2024-02-04T07:56:39;98671.22;;;-1.40;62.60
78932;BME280;68331;53.362;55.932;2024-02-04T07:59:05;98658.25;;;-1.29;62.31
78932;BME280;68331;53.362;55.932;2024-02-04T08:01:31;98640.09;;;-1.25;61.04
78932;BME280;68331;53.362;55.932;2024-02-04T08:03:57;98644.44;;;-1.21;60.96
78932;BME280;68331;53.362;55.932;2024-02-04T08:06:24;98651.25;;;-1.04;60.90
78932;BME280;68331;53.362;55.932;2024-02-04T08:08:50;98646.03;;;-1.00;60.55
78932;BME280;68331;53.362;55.932;2024-02-04T08:11:17;98651.31;;;-1.23;60.79
78932;BME280;68331;53.362;55.932;2024-02-04T08:13:43;98654.00;;;-1.50;61.59
78932;BME280;68331;53.362;55.932;2024-02-04T08:16:10;98660.06;;;-1.64;62.07
78932;BME280;68331;53.362;55.932;2024-02-04T08:18:37;98653.16;;;-1.60;62.32
78932;BME280;68331;53.362;55.932;2024-02-04T08:21:03;98653.16;;;-1.49;62.28
78932;BME280;68331;53.362;55.932;2024-02-04T08:23:29;98645.38;;;-1.43;62.04
78932;BME280;68331;53.362;55.932;2024-02-04T08:25:55;98650.53;;;-1.34;61.67
78932;BME280;68331;53.362;55.932;2024-02-04T08:28:22;98642.72;;;-1.26;61.45
78932;BME280;68331;53.362;55.932;2024-02-04T08:30:49;98639.25;;;-1.28;61.34
78932;BME280;68331;53.362;55.932;2024-02-04T08:33:16;98641.84;;;-1.28;61.49
78932;BME280;68331;53.362;55.932;2024-02-04T08:35:43;98649.66;;;-1.39;61.63
78932;BME280;68331;53.362;55.932;2024-02-04T08:38:10;98642.81;;;-1.58;62.13
78932;BME280;68331;53.362;55.932;2024-02-04T08:40:36;98650.59;;;-1.58;62.07
78932;BME280;68331;53.362;55.932;2024-02-04T08:43:03;98650.59;;;-1.71;62.51
78932;BME280;68331;53.362;55.932;2024-02-04T08:45:30;98653.19;;;-1.80;62.79
78932;BME280;68331;53.362;55.932;2024-02-04T08:47:55;98635.13;;;-1.89;62.91
78932;BME280;68331;53.362;55.932;2024-02-04T08:50:21;98619.66;;;-2.03;63.32
78932;BME280;68331;53.362;55.932;2024-02-04T08:52:47;98638.59;;;-1.90;63.29
78932;BME280;68331;53.362;55.932;2024-02-04T08:55:13;98644.63;;;-1.97;63.56
78932;BME280;68331;53.362;55.932;2024-02-04T08:57:40;98646.31;;;-1.95;63.39
78932;BME280;68331;53.362;55.932;2024-02-04T09:00:06;98638.59;;;-1.99;63.59
78932;BME280;68331;53.362;55.932;2024-02-04T09:02:37;98650.63;;;-1.98;63.83
78932;BME280;68331;53.362;55.932;2024-02-04T09:05:04;98621.41;;;-2.23;63.98
78932;BME280;68331;53.362;55.932;2024-02-04T09:07:30;98651.50;;;-2.24;64.46
78932;BME280;68331;53.362;55.932;2024-02-04T09:09:57;98640.34;;;-2.32;64.59
78932;BME280;68331;53.362;55.932;2024-02-04T09:12:23;98639.47;;;-2.28;64.84
78932;BME280;68331;53.362;55.932;2024-02-04T09:14:49;98634.31;;;-2.23;64.80
78932;BME280;68331;53.362;55.932;2024-02-04T09:17:15;98635.16;;;-2.17;64.75
78932;BME280;68331;53.362;55.932;2024-02-04T09:19:41;98629.97;;;-2.00;63.99
78932;BME280;68331;53.362;55.932;2024-02-04T09:22:07;98619.66;;;-2.06;64.28
78932;BME280;68331;53.362;55.932;2024-02-04T09:24:33;98632.53;;;-1.95;64.69
78932;BME280;68331;53.362;55.932;2024-02-04T09:26:59;98616.19;;;-1.94;64.44
78932;BME280;68331;53.362;55.932;2024-02-04T09:29:25;98613.59;;;-1.99;64.53
78932;BME280;68331;53.362;55.932;2024-02-04T09:31:51;98617.03;;;-1.91;64.67
78932;BME280;68331;53.362;55.932;2024-02-04T09:34:18;98612.72;;;-1.75;64.52
78932;BME280;68331;53.362;55.932;2024-02-04T09:36:44;98605.75;;;-1.56;64.71
78932;BME280;68331;53.362;55.932;2024-02-04T09:39:10;98608.34;;;-1.60;65.97
78932;BME280;68331;53.362;55.932;2024-02-04T09:41:37;98569.66;;;-1.91;67.54
78932;BME280;68331;53.362;55.932;2024-02-04T09:44:04;98592.09;;;-2.01;67.96
78932;BME280;68331;53.362;55.932;2024-02-04T09:46:30;98596.34;;;-1.92;68.84
78932;BME280;68331;53.362;55.932;2024-02-04T09:48:56;98606.69;;;-1.83;69.16
78932;BME280;68331;53.362;55.932;2024-02-04T09:51:22;98602.38;;;-1.81;68.98
78932;BME280;68331;53.362;55.932;2024-02-04T09:53:52;98605.81;;;-1.77;68.66
78932;BME280;68331;53.362;55.932;2024-02-04T09:56:22;98591.19;;;-1.84;69.27
78932;BME280;68331;53.362;55.932;2024-02-04T09:58:50;98577.41;;;-1.99;69.55
78932;BME280;68331;53.362;55.932;2024-02-04T10:01:19;98602.41;;;-1.90;69.91
78932;BME280;68331;53.362;55.932;2024-02-04T10:03:47;98594.66;;;-1.96;70.18
78932;BME280;68331;53.362;55.932;2024-02-04T10:06:13;98595.53;;;-2.03;70.04
78932;BME280;68331;53.362;55.932;2024-02-04T10:08:39;98591.25;;;-2.11;70.66
78932;BME280;68331;53.362;55.932;2024-02-04T10:11:05;98609.28;;;-1.98;70.43
78932;BME280;68331;53.362;55.932;2024-02-04T10:13:44;98597.25;;;-1.98;70.46
78932;BME280;68331;53.362;55.932;2024-02-04T10:16:15;98599.81;;;-1.96;71.79
78932;BME280;68331;53.362;55.932;2024-02-04T10:18:45;98586.03;;;-2.01;71.13
78932;BME280;68331;53.362;55.932;2024-02-04T10:21:19;98591.22;;;-1.94;71.37
78932;BME280;68331;53.362;55.932;2024-02-04T10:23:49;98582.56;;;-1.87;70.84
78932;BME280;68331;53.362;55.932;2024-02-04T10:26:15;98583.44;;;-1.89;71.17
78932;BME280;68331;53.362;55.932;2024-02-04T10:28:42;98584.28;;;-1.95;71.00
78932;BME280;68331;53.362;55.932;2024-02-04T10:31:10;98575.72;;;-2.06;70.86
78932;BME280;68331;53.362;55.932;2024-02-04T10:33:38;98561.94;;;-2.06;70.90
78932;BME280;68331;53.362;55.932;2024-02-04T10:36:05;98570.53;;;-2.00;70.86
78932;BME280;68331;53.362;55.932;2024-02-04T10:38:34;98562.78;;;-2.03;70.45
78932;BME280;68331;53.362;55.932;2024-02-04T10:41:01;98556.75;;;-2.02;70.28
78932;BME280;68331;53.362;55.932;2024-02-04T10:43:31;98555.06;;;-2.09;70.90
78932;BME280;68331;53.362;55.932;2024-02-04T10:46:01;98567.09;;;-1.99;71.13
78932;BME280;68331;53.362;55.932;2024-02-04T10:48:36;98566.25;;;-1.98;70.85
78932;BME280;68331;53.362;55.932;2024-02-04T10:51:14;98569.72;;;-2.13;71.01
78932;BME280;68331;53.362;55.932;2024-02-04T10:53:41;98559.38;;;-2.20;71.36
78932;BME280;68331;53.362;55.932;2024-02-04T10:58:56;98550.81;;;-2.39;72.55
78932;BME280;68331;53.362;55.932;2024-02-04T11:01:26;98563.72;;;-2.42;72.70
78932;BME280;68331;53.362;55.932;2024-02-04T11:03:53;98561.13;;;-2.56;73.24
78932;BME280;68331;53.362;55.932;2024-02-04T11:06:23;98561.13;;;-2.51;74.07
78932;BME280;68331;53.362;55.932;2024-02-04T11:08:53;98551.66;;;-2.55;74.05
78932;BME280;68331;53.362;55.932;2024-02-04T11:11:21;98528.44;;;-2.63;73.83
78932;BME280;68331;53.362;55.932;2024-02-04T11:13:56;98546.47;;;-2.37;73.18
78932;BME280;68331;53.362;55.932;2024-02-04T11:19:23;98546.47;;;-2.22;72.58
78932;BME280;68331;53.362;55.932;2024-02-04T11:27:31;98537.88;;;-2.44;73.14
78932;BME280;68331;53.362;55.932;2024-02-04T11:29:57;98550.78;;;-2.44;73.06
78932;BME280;68331;53.362;55.932;2024-02-04T11:32:24;98530.13;;;-2.47;73.92
78932;BME280;68331;53.362;55.932;2024-02-04T11:34:50;98535.31;;;-2.39;73.02
78932;BME280;68331;53.362;55.932;2024-02-04T11:37:21;98530.16;;;-2.48;73.25
78932;BME280;68331;53.362;55.932;2024-02-04T11:39:53;98536.16;;;-2.55;73.62
78932;BME280;68331;53.362;55.932;2024-02-04T11:42:19;98525.00;;;-2.54;74.09
78932;BME280;68331;53.362;55.932;2024-02-04T11:44:49;98523.25;;;-2.52;74.00
78932;BME280;68331;53.362;55.932;2024-02-04T11:47:25;98519.81;;;-2.53;74.03
78932;BME280;68331;53.362;55.932;2024-02-04T11:49:58;98531.00;;;-2.43;74.19
78932;BME280;68331;53.362;55.932;2024-02-04T11:52:27;98522.38;;;-2.44;73.82
78932;BME280;68331;53.362;55.932;2024-02-04T11:54:56;98496.59;;;-2.71;73.74
78932;BME280;68331;53.362;55.932;2024-02-04T11:57:23;98518.97;;;-2.70;74.41
78932;BME280;68331;53.362;55.932;2024-02-04T11:59:50;98495.72;;;-2.81;75.24
78932;BME280;68331;53.362;55.932;2024-02-04T12:02:17;98499.16;;;-2.71;75.06
78932;BME280;68331;53.362;55.932;2024-02-04T12:04:44;98510.34;;;-2.60;75.46
78932;BME280;68331;53.362;55.932;2024-02-04T12:07:10;98490.59;;;-2.64;75.17
78932;BME280;68331;53.362;55.932;2024-02-04T12:09:37;98493.16;;;-2.70;74.81
78932;BME280;68331;53.362;55.932;2024-02-04T12:12:04;98485.41;;;-2.66;75.09
78932;BME280;68331;53.362;55.932;2024-02-04T12:14:31;98490.59;;;-2.64;75.21
78932;BME280;68331;53.362;55.932;2024-02-04T12:16:57;98495.75;;;-2.67;75.60
78932;BME280;68331;53.362;55.932;2024-02-04T12:19:23;98479.41;;;-2.75;75.67
78932;BME280;68331;53.362;55.932;2024-02-04T12:21:52;98475.09;;;-2.84;75.86
78932;BME280;68331;53.362;55.932;2024-02-04T12:24:19;98459.63;;;-2.93;76.39
78932;BME280;68331;53.362;55.932;2024-02-04T12:26:45;98465.63;;;-3.00;76.66
78932;BME280;68331;53.362;55.932;2024-02-04T12:29:13;98462.22;;;-2.99;77.02
78932;BME280;68331;53.362;55.932;2024-02-04T12:31:40;98456.19;;;-3.05;76.82
78932;BME280;68331;53.362;55.932;2024-02-04T12:34:08;98450.16;;;-3.07;76.82
78932;BME280;68331;53.362;55.932;2024-02-04T12:36:34;98450.16;;;-3.07;77.14
78932;BME280;68331;53.362;55.932;2024-02-04T12:39:00;98432.13;;;-3.28;77.38
78932;BME280;68331;53.362;55.932;2024-02-04T12:41:27;98449.28;;;-3.13;77.47
78932;BME280;68331;53.362;55.932;2024-02-04T12:43:56;98446.72;;;-3.13;77.30
78932;BME280;68331;53.362;55.932;2024-02-04T12:46:23;98436.41;;;-3.16;77.71
78932;BME280;68331;53.362;55.932;2024-02-04T12:48:54;98420.91;;;-3.16;77.28
78932;BME280;68331;53.362;55.932;2024-02-04T12:51:31;98423.50;;;-3.12;77.59
78932;BME280;68331;53.362;55.932;2024-02-04T12:54:11;98422.66;;;-3.18;77.68
78932;BME280;68331;53.362;55.932;2024-02-04T12:56:51;98429.53;;;-3.17;77.87
78932;BME280;68331;53.362;55.932;2024-02-04T12:59:31;98418.34;;;-3.24;77.97
78932;BME280;68331;53.362;55.932;2024-02-04T13:02:01;98420.06;;;-3.23;78.40
78932;BME280;68331;53.362;55.932;2024-02-04T13:04:37;98409.75;;;-3.21;78.26